LFLC/CFE METAR and TAF weather

Enter ICAO airport designator
Station Type Date Time Source
LFLC METAR 2019/08/23 16:00 UTC NOAA

LFLC 231600Z AUTO VRB02KT CAVOK 29/09 Q1020 NOSIG


Station Type Date Time Source
LFLC Decoded METAR 2019/08/23 16:00 UTC NOAA

Station name not available
Aug 23, 2019 - 12:00 PM EDT / 2019.08.23 1600 UTC
Wind: Variable at 2 MPH (2 KT):0
Visibility: greater than 7 mile(s):0
Temperature: 84 F (29 C)
Dew Point: 48 F (9 C)
Relative Humidity: 28%
Pressure (altimeter): 30.12 in. Hg (1020 hPa)
ob: LFLC 231600Z AUTO VRB02KT CAVOK 29/09 Q1020 NOSIG
cycle: 16

Station Type Date Time Source
LFLC TAF 2019/08/23 15:26 UTC NOAA

TAF LFLC 231400Z 2315/2415 VRB03KT CAVOK

Example: see airport list